Main page
METAR-TAF:

METAR-TAF

Airports :

Burgos Airport

Burgos, Spain

latitude: 42-22N, longitude: 003-38W, elevation: 894 m

Current weather observation

The report was made 24 minutes ago, at 19:00 UTC
Wind 3 kt from the North/Northeast
Temperature 14°C
Humidity 67%
Pressure 1015 hPa
Visibility 10 km or more
Scattered clouds at a height of 6000 ft

METAR: LEBG 171900Z AUTO 03003KT 9999 SCT060 14/08 Q1015

Time: 21:24 (19:24 UTC)

Forecast

The report was made 2 hours and 24 minutes ago, at 17:00 UTC
Forecast valid from 17 at 18 UTC to 18 at 03 UTC
Wind 5 kt from variable directions
Visibility 10 km or more
Few clouds at a height of 4000 ft
Probability 30% :
Temporary
from 17 at 20 UTC to 18 at 03 UTC
Broken clouds at a height of 800 ft
rain
Temporary
from 17 at 21 UTC to 18 at 03 UTC
Wind 10 kt from the East/Northeast with gusts up to 20 kt

TAF: LEBG 171700Z 1718/1803 VRB05KT 9999 FEW040 PROB30 TEMPO 1720/1803 RA BKN008 TEMPO 1721/1803 06010G20KT

Weather observations and forecasts of more than 4000 airports (METAR and TAF reports).

The available stations are represented by yellow and red dots on the map.

Hover mouse over dot to see the name of the station.

Then click to see weather observations and forecasts.

To change the map : click on the green buttons with a black cross to zoom in, on the green button with a dash to zoom out, or on the green arrows for adjacent maps.


METAR-TAF: